Time;durP1;ratioP1;P1;durP2;ratioP2;P2;SDS_P1;SDS_P2;PMS_P1;PMS_P2;Temp;Humidity;BMP_temperature;BMP_pressure;BME280_temperature;BME280_humidity;BME280_pressure;Samples;Min_cycle;Max_cycle;Signal;HPM_P1;HPM_P2
2023/01/11 00:00:44;;;;;;;7.87;2.93;;;5.50;99.90;;;;;;5076761;28;20488;-69
2023/01/11 00:03:11;;;;;;;6.63;3.03;;;5.50;99.90;;;;;;5076061;28;20553;-69
2023/01/11 00:05:39;;;;;;;14.40;3.77;;;5.50;99.90;;;;;;5076149;28;20459;-70
2023/01/11 00:08:07;;;;;;;10.70;3.57;;;5.40;99.90;;;;;;5075298;28;20549;-69
2023/01/11 00:10:34;;;;;;;4.77;2.63;;;5.40;99.90;;;;;;5075761;28;20846;-68
2023/01/11 00:13:01;;;;;;;9.67;3.40;;;5.40;99.90;;;;;;5075835;28;20497;-68
2023/01/11 00:15:28;;;;;;;9.93;3.10;;;5.40;99.90;;;;;;5076217;28;20458;-68
2023/01/11 00:17:57;;;;;;;6.73;2.50;;;5.50;99.90;;;;;;5076031;28;20454;-68
2023/01/11 00:20:25;;;;;;;10.73;3.13;;;5.50;99.90;;;;;;5075907;28;20734;-68
2023/01/11 00:22:52;;;;;;;7.13;2.97;;;5.50;99.90;;;;;;5076145;28;20474;-69
2023/01/11 00:25:19;;;;;;;6.77;3.20;;;5.50;99.90;;;;;;5076216;28;20454;-69
2023/01/11 00:27:48;;;;;;;8.60;3.30;;;5.50;99.90;;;;;;5077046;28;20458;-68
2023/01/11 00:30:15;;;;;;;11.90;4.80;;;5.50;99.90;;;;;;5077257;28;20835;-69
2023/01/11 00:32:42;;;;;;;6.10;2.90;;;5.50;99.90;;;;;;5077225;28;20569;-68
2023/01/11 00:35:11;;;;;;;7.10;2.80;;;5.50;99.90;;;;;;5077131;28;20522;-69
2023/01/11 00:37:38;;;;;;;10.10;3.47;;;5.40;99.90;;;;;;5076484;28;20959;-68
2023/01/11 00:40:06;;;;;;;8.43;3.30;;;5.50;99.90;;;;;;5076068;28;20464;-68
2023/01/11 00:48:04;;;;;;;5.27;2.63;;;5.40;99.90;;;;;;5076195;28;20424;-68
2023/01/11 00:50:35;;;;;;;8.43;2.97;;;5.40;99.90;;;;;;5076430;28;20469;-69
2023/01/11 00:53:02;;;;;;;5.67;3.50;;;5.40;99.90;;;;;;5076410;28;20481;-69
2023/01/11 00:55:30;;;;;;;6.37;2.80;;;5.40;99.90;;;;;;5076440;28;20450;-69
2023/01/11 00:57:57;;;;;;;6.13;2.70;;;5.40;99.90;;;;;;5076749;28;20454;-68
2023/01/11 01:00:25;;;;;;;7.63;2.83;;;5.40;99.90;;;;;;5076566;28;20525;-68
2023/01/11 01:02:52;;;;;;;9.57;2.70;;;5.40;99.90;;;;;;5075841;28;20990;-68
2023/01/11 01:05:19;;;;;;;8.63;2.73;;;5.40;99.90;;;;;;5076223;28;20464;-69
2023/01/11 01:07:47;;;;;;;5.20;2.57;;;5.40;99.90;;;;;;5076598;28;20493;-69
2023/01/11 01:10:17;;;;;;;9.70;2.90;;;5.40;99.90;;;;;;5076801;28;20541;-69
2023/01/11 01:15:28;;;;;;;5.37;3.27;;;5.40;99.90;;;;;;5076289;28;20432;-69
2023/01/11 01:17:55;;;;;;;12.03;3.23;;;5.50;99.90;;;;;;5076765;28;20454;-68
2023/01/11 01:20:24;;;;;;;5.40;3.50;;;5.50;99.90;;;;;;5077037;28;20843;-68
2023/01/11 01:22:52;;;;;;;7.97;2.77;;;5.50;99.90;;;;;;5076696;28;20493;-68
2023/01/11 01:25:19;;;;;;;6.00;3.10;;;5.60;99.90;;;;;;5076570;28;20518;-69
2023/01/11 01:27:46;;;;;;;6.97;3.10;;;5.50;99.90;;;;;;5075711;28;20990;-68
2023/01/11 01:30:13;;;;;;;5.13;2.40;;;5.50;99.90;;;;;;5076256;28;20617;-69
2023/01/11 01:32:40;;;;;;;6.60;2.57;;;5.50;99.90;;;;;;5076877;28;20478;-69
2023/01/11 01:35:08;;;;;;;4.07;2.57;;;5.50;99.90;;;;;;5075551;28;20537;-68
2023/01/11 01:37:35;;;;;;;6.87;2.77;;;5.40;99.90;;;;;;5077080;28;20541;-69
2023/01/11 01:40:03;;;;;;;7.63;2.90;;;5.40;99.90;;;;;;5079130;28;20457;-69
2023/01/11 01:42:30;;;;;;;10.53;3.60;;;5.40;99.90;;;;;;5078891;28;20537;-69
2023/01/11 01:45:01;;;;;;;4.37;2.97;;;5.30;99.90;;;;;;5078985;28;20478;-68
2023/01/11 01:47:44;;;;;;;6.90;2.90;;;5.30;99.90;;;;;;5078968;28;20446;-68
2023/01/11 01:50:16;;;;;;;4.57;2.47;;;5.30;99.90;;;;;;5078919;28;20775;-69
2023/01/11 01:52:45;;;;;;;4.70;2.33;;;5.30;99.90;;;;;;5078369;28;20466;-68
2023/01/11 01:55:18;;;;;;;5.70;2.67;;;5.30;99.90;;;;;;5078301;28;20453;-68
2023/01/11 01:57:45;;;;;;;6.53;2.50;;;5.30;99.90;;;;;;5079400;28;20442;-68
2023/01/11 02:00:13;;;;;;;4.70;2.80;;;5.30;99.90;;;;;;5078661;28;20545;-68
2023/01/11 02:02:43;;;;;;;10.20;3.10;;;5.40;99.90;;;;;;5078574;28;20837;-70
2023/01/11 02:05:12;;;;;;;5.00;2.77;;;5.40;99.90;;;;;;5078400;28;20553;-68
2023/01/11 02:07:42;;;;;;;8.67;2.90;;;5.40;99.90;;;;;;5078591;28;20933;-68
2023/01/11 02:10:11;;;;;;;6.53;2.60;;;5.40;99.90;;;;;;5078061;28;20498;-69
2023/01/11 02:12:43;;;;;;;8.57;2.80;;;5.40;99.90;;;;;;5077834;28;20577;-69
2023/01/11 02:15:11;;;;;;;6.90;2.60;;;5.40;99.90;;;;;;5078059;28;20448;-69
2023/01/11 02:17:38;;;;;;;6.67;2.47;;;5.40;99.90;;;;;;5078696;28;20468;-68
2023/01/11 02:20:16;;;;;;;7.70;2.87;;;5.50;99.90;;;;;;5078975;28;20458;-69
2023/01/11 02:23:16;;;;;;;4.13;2.80;;;5.50;99.90;;;;;;5078149;28;20550;-68
2023/01/11 02:26:18;;;;;;;4.03;2.20;;;5.50;99.90;;;;;;5079259;28;20552;-69
2023/01/11 02:28:53;;;;;;;7.50;2.67;;;5.50;99.90;;;;;;5079816;28;20438;-68
2023/01/11 02:31:29;;;;;;;7.93;3.30;;;5.50;99.90;;;;;;5079450;28;20526;-69
2023/01/11 02:34:09;;;;;;;7.30;3.10;;;5.50;99.90;;;;;;5079672;28;20478;-68
2023/01/11 02:36:47;;;;;;;9.70;3.00;;;5.50;99.90;;;;;;5079321;28;20481;-69
2023/01/11 02:39:21;;;;;;;8.83;2.53;;;5.60;99.90;;;;;;5078013;28;20500;-69
2023/01/11 02:45:02;;;;;;;4.27;1.80;;;5.70;99.90;;;;;;5077381;28;20501;-68
2023/01/11 02:47:37;;;;;;;5.20;1.83;;;5.70;99.90;;;;;;5077321;28;20537;-68
2023/01/11 02:50:12;;;;;;;5.27;2.50;;;5.80;99.90;;;;;;5076049;28;20773;-69
2023/01/11 02:52:47;;;;;;;4.03;2.03;;;5.80;99.90;;;;;;5076678;28;20553;-68
2023/01/11 02:55:21;;;;;;;4.77;2.50;;;5.80;99.90;;;;;;5076557;28;20501;-69
2023/01/11 02:57:51;;;;;;;4.50;2.23;;;5.80;99.90;;;;;;5077290;28;20544;-69
2023/01/11 03:00:20;;;;;;;3.87;1.80;;;5.80;99.90;;;;;;5077160;28;20545;-67
2023/01/11 03:02:47;;;;;;;6.90;2.07;;;5.80;99.90;;;;;;5077054;28;20544;-67
2023/01/11 03:05:14;;;;;;;5.40;2.30;;;5.80;99.90;;;;;;5076776;28;20558;-67
2023/01/11 03:07:55;;;;;;;4.00;2.10;;;5.80;99.90;;;;;;5077309;28;20552;-69
2023/01/11 03:10:34;;;;;;;7.93;1.73;;;5.90;99.90;;;;;;5076696;28;20446;-69
2023/01/11 03:13:12;;;;;;;6.93;1.77;;;5.90;99.90;;;;;;5077288;28;20478;-69
2023/01/11 03:16:01;;;;;;;7.07;2.17;;;6.00;99.90;;;;;;5076946;28;20533;-69
2023/01/11 03:18:40;;;;;;;5.00;1.83;;;6.00;99.90;;;;;;5076966;28;20525;-68
2023/01/11 03:21:16;;;;;;;5.37;2.07;;;6.00;99.90;;;;;;5076226;28;20444;-69
2023/01/11 03:23:55;;;;;;;4.37;2.20;;;6.10;99.90;;;;;;5076537;28;20573;-70
2023/01/11 03:26:30;;;;;;;4.20;2.03;;;6.10;99.90;;;;;;5076787;28;20823;-68
2023/01/11 03:29:05;;;;;;;4.60;1.77;;;6.00;99.90;;;;;;5076882;28;20537;-68
2023/01/11 03:31:38;;;;;;;5.73;2.10;;;6.10;99.90;;;;;;5077388;28;20449;-69
2023/01/11 03:34:14;;;;;;;4.20;1.97;;;6.10;99.90;;;;;;5076597;28;20565;-68
2023/01/11 03:36:46;;;;;;;3.30;2.00;;;6.10;99.90;;;;;;5076343;28;20549;-67
2023/01/11 03:39:19;;;;;;;3.70;1.80;;;6.00;99.90;;;;;;5076968;28;20442;-69
2023/01/11 03:41:50;;;;;;;2.80;1.50;;;6.00;99.90;;;;;;5077272;28;20765;-68
2023/01/11 03:44:18;;;;;;;4.00;1.40;;;6.10;99.90;;;;;;5076578;28;20525;-70
2023/01/11 03:46:48;;;;;;;2.87;2.00;;;6.10;99.90;;;;;;5076212;28;20453;-69
2023/01/11 03:49:20;;;;;;;4.20;2.03;;;6.10;99.90;;;;;;5075920;28;20974;-69
2023/01/11 03:51:48;;;;;;;5.87;1.93;;;6.10;99.90;;;;;;5076467;28;20755;-69
2023/01/11 03:54:20;;;;;;;4.47;1.97;;;6.20;99.90;;;;;;5076132;28;20996;-69
2023/01/11 03:56:53;;;;;;;4.67;1.77;;;6.20;99.90;;;;;;5076456;28;20887;-69
2023/01/11 03:59:20;;;;;;;3.83;2.07;;;6.20;99.90;;;;;;5076148;28;20446;-69
2023/01/11 04:01:48;;;;;;;3.50;1.60;;;6.20;99.90;;;;;;5076278;28;20962;-68
2023/01/11 04:04:15;;;;;;;4.90;1.50;;;6.20;99.90;;;;;;5076216;28;20460;-69
2023/01/11 04:06:42;;;;;;;5.10;2.17;;;6.30;99.90;;;;;;5076468;28;20970;-67
2023/01/11 04:09:08;;;;;;;3.67;2.00;;;6.20;99.90;;;;;;5076180;28;20493;-69
2023/01/11 04:11:35;;;;;;;5.33;2.03;;;6.20;99.90;;;;;;5076976;28;20490;-69
2023/01/11 04:14:02;;;;;;;4.50;1.90;;;6.20;99.90;;;;;;5076972;28;20474;-69
2023/01/11 04:16:29;;;;;;;5.60;1.97;;;6.20;99.90;;;;;;5075986;28;20468;-68
2023/01/11 04:18:57;;;;;;;3.80;1.80;;;6.20;99.90;;;;;;5075950;28;20453;-68
2023/01/11 04:21:24;;;;;;;5.27;1.83;;;6.30;99.90;;;;;;5075821;28;20476;-69
2023/01/11 04:23:51;;;;;;;4.77;2.10;;;6.30;99.90;;;;;;5075692;28;20965;-68
2023/01/11 04:26:18;;;;;;;5.20;2.00;;;6.30;99.90;;;;;;5076585;28;20458;-69
2023/01/11 04:28:45;;;;;;;5.30;1.97;;;6.20;99.90;;;;;;5076415;28;20454;-69
2023/01/11 04:31:12;;;;;;;3.57;1.77;;;6.30;99.90;;;;;;5076665;28;20956;-69
2023/01/11 04:33:38;;;;;;;4.10;1.67;;;6.30;99.90;;;;;;5076513;28;20492;-69
2023/01/11 04:36:09;;;;;;;6.83;2.10;;;6.30;99.90;;;;;;5075872;28;20966;-68
2023/01/11 04:38:36;;;;;;;5.00;1.77;;;6.30;99.90;;;;;;5076027;28;20526;-68
2023/01/11 04:43:44;;;;;;;3.20;1.90;;;6.30;99.90;;;;;;5042956;28;20508;-68
2023/01/11 04:46:11;;;;;;;2.43;1.77;;;6.30;99.90;;;;;;5075435;28;20941;-69
2023/01/11 04:48:38;;;;;;;5.00;1.60;;;6.30;99.90;;;;;;5075353;28;20553;-69
2023/01/11 04:51:07;;;;;;;8.20;3.00;;;6.30;99.90;;;;;;5074853;28;20450;-69
2023/01/11 04:53:34;;;;;;;5.40;1.83;;;6.30;99.90;;;;;;5075110;28;20478;-67
2023/01/11 04:56:01;;;;;;;6.17;2.73;;;6.30;99.90;;;;;;5075298;28;20497;-68
2023/01/11 04:58:29;;;;;;;4.07;1.80;;;6.30;99.90;;;;;;5075179;28;20554;-68
2023/01/11 05:00:56;;;;;;;4.70;1.70;;;6.30;99.90;;;;;;5076074;28;20529;-68
2023/01/11 05:03:23;;;;;;;2.73;1.73;;;6.30;99.90;;;;;;5075599;28;20461;-69
2023/01/11 05:05:56;;;;;;;5.63;2.50;;;6.30;99.90;;;;;;5075306;28;20463;-69
2023/01/11 05:08:24;;;;;;;7.57;1.70;;;6.30;99.90;;;;;;5076033;28;20442;-68
2023/01/11 05:10:54;;;;;;;8.33;2.27;;;6.30;99.90;;;;;;5075806;28;20557;-68
2023/01/11 05:13:40;;;;;;;5.40;1.80;;;6.30;99.90;;;;;;5080045;28;20506;-68
2023/01/11 05:16:07;;;;;;;3.33;1.90;;;6.30;99.90;;;;;;5080579;28;20441;-69
2023/01/11 05:18:34;;;;;;;3.53;1.83;;;6.30;99.90;;;;;;5079950;28;20505;-68
2023/01/11 05:21:02;;;;;;;3.40;1.70;;;6.30;99.90;;;;;;5079460;28;20493;-68
2023/01/11 05:23:30;;;;;;;3.93;2.30;;;6.20;99.90;;;;;;5079023;28;21046;-67
2023/01/11 05:25:57;;;;;;;6.60;1.60;;;6.30;99.90;;;;;;5078875;28;20462;-68
2023/01/11 05:28:24;;;;;;;7.87;2.00;;;6.30;99.90;;;;;;5079051;28;20949;-68
2023/01/11 05:30:52;;;;;;;4.40;1.67;;;6.30;99.90;;;;;;5079514;28;20531;-69
2023/01/11 05:33:19;;;;;;;6.53;1.60;;;6.30;99.90;;;;;;5079043;28;20482;-69
2023/01/11 05:35:46;;;;;;;2.70;1.73;;;6.20;99.90;;;;;;5079044;28;20454;-69
2023/01/11 05:38:13;;;;;;;3.53;1.50;;;6.30;99.90;;;;;;5079341;28;20454;-69
2023/01/11 05:40:41;;;;;;;4.23;1.83;;;6.30;99.90;;;;;;5079061;28;20510;-69
2023/01/11 05:43:08;;;;;;;4.87;1.80;;;6.30;99.90;;;;;;5078842;28;20486;-68
2023/01/11 05:45:37;;;;;;;12.60;3.23;;;6.30;99.90;;;;;;5078413;28;20468;-69
2023/01/11 05:48:05;;;;;;;5.93;1.90;;;6.30;99.90;;;;;;5079208;28;20842;-69
2023/01/11 05:50:31;;;;;;;5.50;2.10;;;6.30;99.90;;;;;;5078580;28;20464;-69
2023/01/11 05:52:58;;;;;;;3.07;2.10;;;6.30;99.90;;;;;;5079013;28;20556;-69
2023/01/11 05:55:25;;;;;;;5.53;2.33;;;6.30;99.90;;;;;;5078842;28;20815;-69
2023/01/11 05:57:53;;;;;;;5.83;1.83;;;6.30;99.90;;;;;;5078968;28;20457;-69
2023/01/11 06:00:21;;;;;;;4.30;2.10;;;6.30;99.90;;;;;;5079413;28;20557;-68
2023/01/11 06:02:47;;;;;;;7.27;1.83;;;6.30;99.90;;;;;;5078915;28;20529;-68
2023/01/11 06:05:15;;;;;;;6.97;2.20;;;6.30;99.90;;;;;;5078561;28;20925;-69
2023/01/11 06:07:41;;;;;;;5.73;1.90;;;6.30;99.90;;;;;;5078583;28;20504;-68
2023/01/11 06:10:10;;;;;;;5.40;1.70;;;6.20;99.90;;;;;;5078902;28;20496;-68
2023/01/11 06:12:36;;;;;;;3.40;1.40;;;6.30;99.90;;;;;;5078228;28;20930;-69
2023/01/11 06:15:06;;;;;;;2.70;1.77;;;6.30;99.90;;;;;;5078280;28;20980;-67
2023/01/11 06:17:33;;;;;;;3.83;1.83;;;6.30;99.90;;;;;;5078387;28;20511;-68
2023/01/11 06:19:59;;;;;;;9.43;2.57;;;6.30;99.90;;;;;;5078458;28;20554;-69
2023/01/11 06:22:26;;;;;;;5.23;2.00;;;6.30;99.90;;;;;;5078090;28;20549;-68
2023/01/11 06:24:53;;;;;;;4.13;1.73;;;6.30;99.90;;;;;;5079583;28;20509;-68
2023/01/11 06:27:20;;;;;;;3.40;1.90;;;6.30;99.90;;;;;;5081506;28;20512;-69
2023/01/11 06:29:47;;;;;;;3.20;1.80;;;6.30;99.90;;;;;;5080286;28;20537;-69
2023/01/11 06:32:15;;;;;;;2.53;1.70;;;6.30;99.90;;;;;;5079105;28;20853;-69
2023/01/11 06:34:42;;;;;;;3.33;1.67;;;6.30;99.90;;;;;;5078643;28;20513;-69
2023/01/11 06:37:09;;;;;;;5.03;2.77;;;6.30;99.90;;;;;;5078846;28;20450;-69
2023/01/11 06:39:35;;;;;;;6.07;2.67;;;6.30;99.90;;;;;;5079302;28;20562;-70
2023/01/11 06:42:02;;;;;;;2.23;1.70;;;6.30;99.90;;;;;;5079377;28;20458;-69
2023/01/11 06:44:29;;;;;;;1.63;1.30;;;6.30;99.90;;;;;;5079819;28;20493;-68
2023/01/11 06:46:57;;;;;;;4.67;2.67;;;6.30;99.90;;;;;;5079366;28;20808;-68
2023/01/11 06:49:25;;;;;;;4.70;2.07;;;6.40;99.90;;;;;;5077904;28;20454;-70
2023/01/11 06:51:52;;;;;;;2.50;1.63;;;6.40;99.90;;;;;;5078251;28;20519;-69
2023/01/11 06:54:21;;;;;;;5.83;1.87;;;6.40;99.90;;;;;;5077639;28;20478;-69
2023/01/11 06:56:48;;;;;;;3.00;1.70;;;6.40;99.90;;;;;;5077644;28;20469;-69
2023/01/11 06:59:15;;;;;;;5.60;2.20;;;6.50;99.90;;;;;;5078064;28;20461;-69
2023/01/11 07:01:42;;;;;;;4.30;1.90;;;6.50;99.90;;;;;;5077910;28;20450;-69
2023/01/11 07:04:09;;;;;;;5.97;2.33;;;6.50;99.90;;;;;;5077691;28;20548;-69
2023/01/11 07:06:37;;;;;;;4.00;1.80;;;6.50;99.90;;;;;;5077545;28;20458;-69
2023/01/11 07:09:04;;;;;;;4.87;1.87;;;6.50;99.90;;;;;;5077021;28;20490;-68
2023/01/11 07:11:33;;;;;;;5.30;1.90;;;6.40;99.90;;;;;;5077143;28;20465;-69
2023/01/11 07:14:00;;;;;;;3.60;2.20;;;6.40;99.90;;;;;;5077454;28;20513;-68
2023/01/11 07:16:27;;;;;;;4.93;1.77;;;6.40;99.90;;;;;;5077500;28;20454;-68
2023/01/11 07:18:54;;;;;;;3.30;1.70;;;6.40;99.90;;;;;;5077183;28;20545;-70
2023/01/11 07:21:21;;;;;;;8.10;1.83;;;6.40;99.90;;;;;;5077626;28;21005;-68
2023/01/11 07:23:49;;;;;;;3.67;2.40;;;6.50;99.90;;;;;;5077288;28;20569;-68
2023/01/11 07:26:16;;;;;;;6.23;2.53;;;6.50;99.90;;;;;;5077149;28;20467;-68
2023/01/11 07:28:43;;;;;;;2.30;1.80;;;6.50;99.90;;;;;;5077352;28;20466;-68
2023/01/11 07:31:10;;;;;;;2.83;1.80;;;6.60;99.90;;;;;;5077155;28;20549;-70
2023/01/11 07:33:37;;;;;;;3.23;1.70;;;6.60;99.90;;;;;;5076949;28;20457;-69
2023/01/11 07:36:05;;;;;;;3.30;2.13;;;6.60;99.90;;;;;;5076810;28;20536;-68
2023/01/11 07:38:32;;;;;;;6.40;1.90;;;6.60;99.90;;;;;;5077141;28;20497;-69
2023/01/11 07:43:10;;;;;;;5.10;2.00;;;6.60;99.90;;;;;;5076760;28;20561;-69
2023/01/11 07:43:46;;;;;;;5.77;1.97;;;6.60;99.90;;;;;;5076478;28;20435;-69
2023/01/11 07:46:13;;;;;;;3.97;1.87;;;6.60;99.90;;;;;;5076923;28;20468;-69
2023/01/11 07:48:39;;;;;;;6.73;2.13;;;6.70;99.90;;;;;;5077494;28;20226;-70
2023/01/11 07:51:07;;;;;;;5.77;1.60;;;6.70;99.90;;;;;;5076464;28;20779;-67
2023/01/11 07:53:33;;;;;;;5.73;2.40;;;6.70;99.90;;;;;;5076430;28;20496;-69
2023/01/11 07:56:02;;;;;;;5.40;1.50;;;6.70;99.90;;;;;;5075967;28;20482;-69
2023/01/11 07:58:28;;;;;;;6.67;1.70;;;6.70;99.90;;;;;;5076609;28;20549;-69
2023/01/11 08:00:58;;;;;;;3.03;1.77;;;6.70;99.90;;;;;;5075949;28;20469;-68
2023/01/11 08:03:25;;;;;;;8.00;2.23;;;6.80;99.90;;;;;;5075803;28;20490;-69
2023/01/11 08:05:53;;;;;;;6.50;2.87;;;6.80;99.90;;;;;;5076306;28;20533;-68
2023/01/11 08:08:20;;;;;;;5.33;2.03;;;6.90;99.90;;;;;;5076042;28;20469;-69
2023/01/11 08:14:37;;;;;;;2.20;1.50;;;6.90;99.90;;;;;;5076553;28;20537;-69
2023/01/11 08:16:19;;;;;;;10.30;1.87;;;6.90;99.90;;;;;;5077368;28;20430;-67
2023/01/11 08:18:46;;;;;;;3.13;1.97;;;7.00;99.90;;;;;;5076745;28;20450;-69
2023/01/11 08:21:13;;;;;;;9.20;2.40;;;7.00;99.90;;;;;;5076604;28;20450;-70
2023/01/11 08:23:40;;;;;;;4.03;2.03;;;7.00;99.90;;;;;;5076072;28;20517;-68
2023/01/11 08:26:07;;;;;;;6.10;2.30;;;7.00;99.90;;;;;;5076594;28;20478;-70
2023/01/11 08:28:35;;;;;;;3.77;1.50;;;7.10;99.90;;;;;;5076205;28;20497;-68
2023/01/11 08:31:07;;;;;;;9.27;2.30;;;7.00;99.90;;;;;;5076795;28;21021;-69
2023/01/11 08:33:34;;;;;;;4.40;1.90;;;7.10;99.90;;;;;;5077328;28;20521;-69
2023/01/11 08:36:05;;;;;;;7.03;2.23;;;7.10;99.90;;;;;;5076817;28;20600;-69
2023/01/11 08:38:31;;;;;;;5.00;2.50;;;7.20;99.90;;;;;;5076581;28;20453;-69
2023/01/11 08:40:58;;;;;;;5.43;2.43;;;7.20;99.90;;;;;;5076631;28;20548;-68
2023/01/11 08:43:25;;;;;;;3.10;2.57;;;7.20;99.90;;;;;;5076975;28;20465;-68
2023/01/11 08:45:53;;;;;;;2.83;1.60;;;7.20;99.90;;;;;;5076896;28;20482;-69
2023/01/11 08:48:20;;;;;;;5.90;2.33;;;7.30;99.90;;;;;;5075841;28;20801;-69
2023/01/11 08:50:47;;;;;;;9.83;2.23;;;7.30;99.90;;;;;;5075588;28;20549;-70
2023/01/11 08:53:14;;;;;;;8.73;2.83;;;7.30;99.90;;;;;;5075913;28;20545;-70
2023/01/11 08:55:43;;;;;;;2.67;1.70;;;7.30;99.90;;;;;;5057363;28;20512;-69
2023/01/11 08:58:10;;;;;;;3.57;1.90;;;7.30;99.90;;;;;;5055257;28;20455;-68
2023/01/11 09:00:37;;;;;;;3.70;1.70;;;7.40;99.90;;;;;;5055470;28;20541;-68
2023/01/11 09:03:05;;;;;;;9.30;2.50;;;7.40;99.90;;;;;;5055428;28;20967;-68
2023/01/11 09:05:32;;;;;;;7.60;1.93;;;7.40;99.90;;;;;;5055232;28;20461;-70
2023/01/11 09:07:58;;;;;;;4.50;2.03;;;7.40;99.90;;;;;;5055743;28;20455;-69
2023/01/11 09:10:26;;;;;;;3.20;2.27;;;7.40;99.90;;;;;;5055265;28;20465;-69
2023/01/11 09:12:52;;;;;;;6.07;2.07;;;7.30;99.90;;;;;;5055210;28;20787;-69
2023/01/11 09:15:19;;;;;;;6.10;2.53;;;7.20;99.90;;;;;;5055176;28;21082;-69
2023/01/11 09:17:46;;;;;;;6.03;2.20;;;7.20;99.90;;;;;;5054987;28;20542;-69
2023/01/11 09:20:15;;;;;;;2.57;1.87;;;7.30;99.90;;;;;;5055356;28;20540;-67
2023/01/11 09:22:45;;;;;;;4.93;2.30;;;7.30;99.90;;;;;;5055165;28;20493;-71
2023/01/11 09:25:13;;;;;;;2.53;2.03;;;7.30;99.90;;;;;;5055432;28;20526;-69
2023/01/11 09:27:43;;;;;;;2.73;1.77;;;7.30;99.90;;;;;;5054926;28;20459;-68
2023/01/11 09:30:11;;;;;;;2.90;2.27;;;7.20;99.90;;;;;;5055426;28;20470;-69
2023/01/11 09:32:38;;;;;;;3.50;2.80;;;7.20;99.90;;;;;;5055428;28;20848;-69
2023/01/11 09:35:06;;;;;;;3.53;2.13;;;7.20;99.90;;;;;;5054646;28;20479;-70
2023/01/11 09:37:38;;;;;;;4.00;2.20;;;7.20;99.90;;;;;;5056512;28;20554;-68
2023/01/11 09:40:06;;;;;;;2.80;2.00;;;7.20;99.90;;;;;;5056462;28;20447;-69
2023/01/11 09:42:36;;;;;;;4.03;2.30;;;7.20;99.90;;;;;;5055542;28;20519;-69
2023/01/11 09:45:13;;;;;;;6.93;2.47;;;7.10;99.90;;;;;;5055533;28;20792;-68
2023/01/11 09:47:43;;;;;;;3.20;2.30;;;7.10;99.90;;;;;;5055313;28;20445;-68
2023/01/11 09:50:16;;;;;;;3.70;2.87;;;7.00;99.90;;;;;;5056127;28;20550;-68
2023/01/11 09:52:48;;;;;;;4.23;2.40;;;7.00;99.90;;;;;;5056576;28;20484;-69
2023/01/11 09:55:23;;;;;;;4.50;2.60;;;6.90;99.90;;;;;;5057088;28;20467;-68
2023/01/11 09:58:01;;;;;;;5.07;3.83;;;6.90;99.90;;;;;;5064198;28;20453;-68
2023/01/11 10:00:41;;;;;;;6.00;2.50;;;6.90;99.90;;;;;;5079951;28;20477;-69
2023/01/11 10:03:42;;;;;;;5.47;3.00;;;6.90;99.90;;;;;;5080150;28;20537;-68
2023/01/11 10:06:17;;;;;;;3.63;3.00;;;6.90;99.90;;;;;;5078857;28;20770;-69
2023/01/11 10:09:02;;;;;;;4.00;3.10;;;6.80;99.90;;;;;;5078821;28;20441;-71
2023/01/11 10:11:40;;;;;;;5.53;2.70;;;6.80;99.90;;;;;;5078918;28;20808;-68
2023/01/11 10:14:22;;;;;;;4.97;3.37;;;6.90;99.90;;;;;;5078586;28;20442;-69
2023/01/11 10:16:59;;;;;;;3.30;3.00;;;6.90;99.90;;;;;;5078045;28;20466;-69
2023/01/11 10:19:34;;;;;;;6.73;4.43;;;6.90;99.90;;;;;;5078546;28;20511;-69
2023/01/11 10:22:07;;;;;;;4.93;2.80;;;6.90;99.90;;;;;;5079425;28;20481;-69
2023/01/11 10:24:40;;;;;;;4.47;2.80;;;7.00;99.90;;;;;;5079403;28;20521;-69
2023/01/11 10:27:17;;;;;;;3.40;3.10;;;7.00;99.90;;;;;;5079475;28;20765;-69
2023/01/11 10:30:07;;;;;;;4.57;2.80;;;7.00;99.90;;;;;;5079849;28;20827;-69
2023/01/11 10:32:52;;;;;;;3.30;3.00;;;7.00;99.90;;;;;;5079349;28;20453;-71
2023/01/11 10:35:46;;;;;;;3.77;2.80;;;6.90;99.90;;;;;;5078486;28;20482;-68
2023/01/11 10:38:45;;;;;;;5.40;3.50;;;7.00;99.90;;;;;;5078749;28;20446;-68
2023/01/11 10:41:24;;;;;;;6.00;3.30;;;7.00;99.90;;;;;;5079120;28;20880;-70
2023/01/11 10:44:03;;;;;;;4.30;3.20;;;7.00;99.90;;;;;;5078427;28;20442;-71
2023/01/11 10:46:33;;;;;;;4.30;2.67;;;7.00;99.90;;;;;;5077647;28;20529;-67
2023/01/11 10:49:12;;;;;;;4.10;3.70;;;7.10;99.90;;;;;;5077584;28;20455;-68
2023/01/11 10:51:45;;;;;;;3.57;3.10;;;7.10;99.90;;;;;;5077442;28;20446;-68
2023/01/11 10:54:15;;;;;;;4.00;3.03;;;7.20;99.90;;;;;;5077325;28;20459;-70
2023/01/11 10:57:01;;;;;;;6.00;3.80;;;7.10;99.90;;;;;;5077040;28;20603;-69
2023/01/11 10:59:55;;;;;;;6.90;3.40;;;7.10;99.90;;;;;;5077208;28;20468;-68
2023/01/11 11:02:44;;;;;;;3.43;3.13;;;7.10;99.90;;;;;;5077660;28;20442;-71
2023/01/11 11:05:25;;;;;;;5.93;4.23;;;7.20;99.90;;;;;;5078005;28;20434;-70
2023/01/11 11:07:56;;;;;;;5.57;3.63;;;7.20;99.90;;;;;;5077959;28;20508;-69
2023/01/11 11:10:29;;;;;;;6.30;4.00;;;7.20;99.90;;;;;;5077184;28;20876;-70
2023/01/11 11:13:08;;;;;;;4.73;3.50;;;7.20;99.90;;;;;;5078154;28;20524;-70
2023/01/11 11:15:38;;;;;;;4.10;3.70;;;7.20;99.90;;;;;;5078568;28;20474;-69
2023/01/11 11:18:05;;;;;;;5.87;3.30;;;7.20;99.90;;;;;;5080556;28;20537;-69
2023/01/11 11:20:34;;;;;;;6.30;4.00;;;7.30;99.90;;;;;;5079200;28;20965;-69
2023/01/11 11:23:01;;;;;;;5.40;3.73;;;7.30;99.90;;;;;;5077439;28;20521;-69
2023/01/11 11:25:31;;;;;;;4.50;3.90;;;7.30;99.90;;;;;;5077482;28;20818;-69
2023/01/11 11:28:03;;;;;;;5.60;3.93;;;7.30;99.90;;;;;;5077135;28;20462;-70
2023/01/11 11:30:33;;;;;;;4.33;3.70;;;7.30;99.90;;;;;;5076478;28;20460;-69
2023/01/11 11:33:03;;;;;;;7.73;5.67;;;7.30;99.90;;;;;;5076821;28;20811;-68
2023/01/11 11:35:32;;;;;;;6.20;3.90;;;7.40;99.90;;;;;;5076328;28;20478;-68
2023/01/11 11:37:59;;;;;;;4.60;3.20;;;7.40;99.90;;;;;;5077257;28;20458;-68
2023/01/11 11:40:32;;;;;;;6.83;4.17;;;7.40;99.90;;;;;;5077718;28;20464;-70
2023/01/11 11:43:19;;;;;;;6.90;3.07;;;7.40;99.90;;;;;;5077117;28;20911;-70
2023/01/11 11:45:54;;;;;;;5.13;3.70;;;7.40;99.90;;;;;;5078521;28;20561;-70
2023/01/11 11:48:22;;;;;;;5.97;4.37;;;7.50;99.90;;;;;;5078195;28;20895;-69
2023/01/11 11:50:50;;;;;;;9.03;4.50;;;7.50;99.90;;;;;;5079366;28;20545;-69
2023/01/11 11:53:28;;;;;;;4.60;4.10;;;7.50;99.90;;;;;;5080277;28;20489;-70
2023/01/11 11:55:55;;;;;;;13.93;4.30;;;7.50;99.90;;;;;;5078787;28;20563;-69
2023/01/11 11:58:26;;;;;;;6.20;4.30;;;7.50;99.90;;;;;;5077884;28;20961;-70
2023/01/11 12:00:53;;;;;;;5.20;3.87;;;7.50;99.90;;;;;;5077016;28;20488;-69
2023/01/11 12:03:23;;;;;;;7.23;3.80;;;7.50;99.90;;;;;;5077948;28;20461;-70
2023/01/11 12:05:57;;;;;;;5.83;4.87;;;7.50;99.90;;;;;;5077826;28;20838;-70
2023/01/11 12:08:25;;;;;;;5.50;4.00;;;7.50;99.90;;;;;;5078253;28;20521;-69
2023/01/11 12:10:56;;;;;;;6.27;3.80;;;7.60;99.90;;;;;;5077244;28;20545;-69
2023/01/11 12:13:33;;;;;;;5.13;4.63;;;7.60;99.90;;;;;;5076940;28;20447;-70
2023/01/11 12:16:01;;;;;;;4.63;4.10;;;7.60;99.90;;;;;;5076867;28;20472;-70
2023/01/11 12:18:32;;;;;;;7.97;4.90;;;7.60;99.90;;;;;;5077019;28;20523;-68
2023/01/11 12:21:15;;;;;;;6.27;4.90;;;7.60;99.90;;;;;;5076049;28;20898;-69
2023/01/11 12:23:42;;;;;;;5.90;4.83;;;7.60;99.90;;;;;;5077322;28;20579;-69
2023/01/11 12:26:21;;;;;;;5.23;4.10;;;7.60;99.90;;;;;;5076965;28;20450;-69
2023/01/11 12:29:22;;;;;;;4.53;4.10;;;7.70;99.90;;;;;;5077119;28;20443;-68
2023/01/11 12:32:02;;;;;;;4.93;4.13;;;7.70;99.90;;;;;;5077004;28;20453;-69
2023/01/11 12:34:39;;;;;;;5.97;4.33;;;7.70;99.90;;;;;;5076859;28;20529;-69
2023/01/11 12:37:19;;;;;;;5.93;3.73;;;7.80;99.90;;;;;;5078515;28;20533;-68
2023/01/11 12:39:55;;;;;;;5.17;3.90;;;7.80;99.90;;;;;;5078686;28;20449;-69
2023/01/11 12:42:50;;;;;;;5.33;3.83;;;7.80;99.90;;;;;;5078109;28;20878;-69
2023/01/11 12:45:29;;;;;;;4.73;3.67;;;7.80;99.90;;;;;;5078825;28;20522;-69
2023/01/11 12:48:23;;;;;;;4.70;3.73;;;7.80;99.90;;;;;;5077048;28;20439;-69
2023/01/11 12:51:02;;;;;;;5.43;4.20;;;7.90;99.90;;;;;;5076778;28;20438;-68
2023/01/11 12:53:41;;;;;;;6.27;4.07;;;7.90;99.90;;;;;;5077469;28;20517;-68
2023/01/11 12:56:36;;;;;;;4.40;4.00;;;7.90;99.90;;;;;;5077285;28;20476;-69
2023/01/11 12:59:16;;;;;;;4.50;3.80;;;7.90;99.90;;;;;;5070393;28;20542;-69
2023/01/11 13:01:58;;;;;;;3.77;3.47;;;7.90;99.90;;;;;;5076752;28;20504;-68
2023/01/11 13:04:46;;;;;;;5.83;4.00;;;7.90;99.90;;;;;;5076035;28;20489;-68
2023/01/11 13:07:27;;;;;;;4.20;3.80;;;7.90;99.90;;;;;;5076744;28;20518;-69
2023/01/11 13:10:08;;;;;;;6.03;3.80;;;7.90;99.90;;;;;;5076648;28;20508;-68
2023/01/11 13:12:41;;;;;;;7.30;3.97;;;8.00;99.90;;;;;;5077495;28;20759;-70
2023/01/11 13:15:27;;;;;;;7.60;3.63;;;8.00;99.90;;;;;;5069605;28;20545;-68
2023/01/11 13:18:02;;;;;;;4.17;3.70;;;8.00;99.90;;;;;;5076461;28;20458;-69
2023/01/11 13:20:40;;;;;;;5.00;3.53;;;7.90;99.90;;;;;;5075739;28;20963;-70
2023/01/11 13:23:12;;;;;;;4.83;3.60;;;8.00;99.90;;;;;;5074682;28;20863;-69
2023/01/11 13:25:44;;;;;;;3.30;3.00;;;8.00;99.90;;;;;;5077401;28;20774;-69
2023/01/11 13:28:20;;;;;;;3.90;3.60;;;8.00;99.90;;;;;;5076530;28;20872;-69
2023/01/11 13:30:48;;;;;;;4.13;3.73;;;8.00;99.90;;;;;;5077575;28;20521;-69
2023/01/11 13:33:21;;;;;;;8.23;5.03;;;8.10;99.90;;;;;;5078231;28;20456;-69
2023/01/11 13:35:52;;;;;;;4.80;3.73;;;8.00;99.90;;;;;;5062643;28;20477;-68